Time;durP1;ratioP1;P1;durP2;ratioP2;P2;SDS_P1;SDS_P2;PMS_P1;PMS_P2;Temp;Humidity;BMP_temperature;BMP_pressure;BME280_temperature;BME280_humidity;BME280_pressure;Samples;Min_cycle;Max_cycle;Signal;HPM_P1;HPM_P2
2021/10/15 00:00:06;;;;;;;4.20;3.80;;;6.00;99.90;;;;;;5036120;28;20182;-66
2021/10/15 00:02:32;;;;;;;3.47;3.17;;;5.90;99.90;;;;;;5036231;28;20216;-65
2021/10/15 00:04:57;;;;;;;4.97;3.60;;;6.00;99.90;;;;;;5035964;28;20174;-65
2021/10/15 00:07:23;;;;;;;3.87;3.10;;;5.90;99.90;;;;;;5035944;28;20197;-65
2021/10/15 00:09:48;;;;;;;2.70;2.50;;;5.90;99.90;;;;;;5035550;28;20742;-66
2021/10/15 00:12:14;;;;;;;6.37;4.67;;;5.90;99.90;;;;;;5035904;28;20532;-66
2021/10/15 00:14:40;;;;;;;2.90;2.70;;;5.90;99.90;;;;;;5035736;28;20170;-66
2021/10/15 00:17:06;;;;;;;4.20;3.80;;;5.90;99.90;;;;;;5035317;28;20401;-66
2021/10/15 00:19:32;;;;;;;3.83;3.47;;;5.90;99.90;;;;;;5035701;28;20514;-65
2021/10/15 00:21:58;;;;;;;7.20;3.50;;;5.80;99.90;;;;;;5035724;28;20170;-66
2021/10/15 00:24:24;;;;;;;6.60;4.18;;;5.80;99.90;;;;;;5035422;28;20428;-65
2021/10/15 00:26:49;;;;;;;8.60;4.93;;;5.70;99.90;;;;;;5035140;28;20290;-65
2021/10/15 00:29:15;;;;;;;6.27;5.23;;;5.60;99.90;;;;;;5035374;28;20456;-64
2021/10/15 00:31:41;;;;;;;9.03;4.27;;;5.70;99.90;;;;;;5035323;28;20167;-63
2021/10/15 00:34:06;;;;;;;6.80;5.10;;;5.60;99.90;;;;;;5033880;28;20253;-65
2021/10/15 00:36:32;;;;;;;4.13;3.70;;;5.60;99.90;;;;;;5035357;28;20651;-66
2021/10/15 00:38:57;;;;;;;3.73;3.40;;;5.60;99.90;;;;;;5033906;28;20683;-65
2021/10/15 00:41:23;;;;;;;4.40;4.00;;;5.50;99.90;;;;;;5035381;28;20174;-66
2021/10/15 00:44:06;;;;;;;4.27;3.87;;;5.40;99.90;;;;;;5035067;28;20645;-65
2021/10/15 00:46:34;;;;;;;3.75;3.50;;;5.50;99.90;;;;;;5035084;28;20405;-65
2021/10/15 00:49:05;;;;;;;5.07;3.75;;;5.50;99.90;;;;;;5035134;28;20197;-67
2021/10/15 00:51:32;;;;;;;6.85;3.95;;;5.50;99.90;;;;;;5035009;28;20502;-66
2021/10/15 00:53:59;;;;;;;5.25;3.70;;;5.50;99.90;;;;;;5035057;28;20173;-66
2021/10/15 00:56:27;;;;;;;4.15;3.85;;;5.50;99.90;;;;;;5034909;28;20548;-66
2021/10/15 00:58:53;;;;;;;4.72;4.32;;;5.50;99.90;;;;;;5034423;28;20751;-66
2021/10/15 01:01:18;;;;;;;4.82;4.40;;;5.50;99.90;;;;;;5034829;28;20174;-65
2021/10/15 01:03:44;;;;;;;5.73;4.80;;;5.50;99.90;;;;;;5035013;28;20635;-63
2021/10/15 01:06:10;;;;;;;3.37;3.07;;;5.50;99.90;;;;;;5034232;28;20174;-66
2021/10/15 01:08:40;;;;;;;6.07;4.43;;;5.50;99.90;;;;;;5034241;28;20285;-67
2021/10/15 01:11:07;;;;;;;4.90;4.40;;;5.50;99.90;;;;;;5034453;28;20175;-65
2021/10/15 01:13:33;;;;;;;3.60;3.22;;;5.60;99.90;;;;;;5034913;28;20178;-65
2021/10/15 01:16:11;;;;;;;5.18;4.55;;;5.60;99.90;;;;;;5034925;28;20170;-65
2021/10/15 01:18:38;;;;;;;8.90;4.28;;;5.60;99.90;;;;;;5034009;28;20636;-66
2021/10/15 01:21:08;;;;;;;4.28;3.78;;;5.70;99.90;;;;;;5034425;28;20178;-67
2021/10/15 01:23:34;;;;;;;4.97;4.45;;;5.70;99.90;;;;;;5034601;28;20244;-63
2021/10/15 01:26:00;;;;;;;7.28;3.97;;;5.70;99.90;;;;;;5033799;28;20210;-65
2021/10/15 01:28:27;;;;;;;5.03;4.20;;;5.70;99.90;;;;;;5033902;28;20651;-65
2021/10/15 01:30:53;;;;;;;7.75;5.13;;;5.70;99.90;;;;;;5034530;28;20436;-67
2021/10/15 01:33:19;;;;;;;5.18;3.72;;;5.70;99.90;;;;;;5034258;28;20170;-66
2021/10/15 01:35:45;;;;;;;4.90;3.97;;;5.70;99.90;;;;;;5034432;28;20181;-67
2021/10/15 01:38:12;;;;;;;5.72;4.05;;;5.60;99.90;;;;;;5033736;28;20273;-66
2021/10/15 01:40:38;;;;;;;4.28;3.42;;;5.60;99.90;;;;;;5033884;28;20178;-66
2021/10/15 01:43:04;;;;;;;4.25;3.53;;;5.60;99.90;;;;;;5034310;28;20248;-66
2021/10/15 01:45:32;;;;;;;4.15;3.15;;;5.50;99.90;;;;;;5033800;28;20591;-66
2021/10/15 01:47:58;;;;;;;4.95;4.45;;;5.50;99.90;;;;;;5032239;28;20190;-66
2021/10/15 01:50:25;;;;;;;5.05;3.95;;;5.50;99.90;;;;;;5033756;28;20200;-65
2021/10/15 01:52:51;;;;;;;4.65;3.40;;;5.40;99.90;;;;;;5032142;28;20170;-65
2021/10/15 01:55:17;;;;;;;4.60;3.28;;;5.40;99.90;;;;;;5031632;28;20190;-66
2021/10/15 01:57:43;;;;;;;3.22;3.00;;;5.40;99.90;;;;;;5031647;28;20190;-67
2021/10/15 02:00:11;;;;;;;6.13;3.17;;;5.30;99.90;;;;;;5032127;28;20711;-65
2021/10/15 02:02:37;;;;;;;3.38;2.72;;;5.30;99.90;;;;;;5032348;28;20185;-66
2021/10/15 02:05:05;;;;;;;8.63;4.37;;;5.30;99.90;;;;;;5032548;28;20181;-64
2021/10/15 02:07:31;;;;;;;4.05;3.67;;;5.20;99.90;;;;;;5032646;28;20444;-64
2021/10/15 02:09:56;;;;;;;5.80;3.73;;;5.20;99.90;;;;;;5033646;28;20217;-65
2021/10/15 02:12:22;;;;;;;5.83;3.77;;;5.20;99.90;;;;;;5033429;28;20572;-66
2021/10/15 02:14:47;;;;;;;6.10;4.50;;;5.20;99.90;;;;;;5033454;28;20197;-65
2021/10/15 02:17:13;;;;;;;5.40;4.27;;;5.10;99.90;;;;;;5033276;28;20174;-66
2021/10/15 02:19:39;;;;;;;5.43;4.90;;;5.10;99.90;;;;;;5033619;28;20565;-64
2021/10/15 02:22:05;;;;;;;6.47;4.27;;;5.00;99.90;;;;;;5033617;28;20416;-65
2021/10/15 02:24:30;;;;;;;4.73;3.73;;;5.00;99.90;;;;;;5033501;28;20173;-65
2021/10/15 02:26:56;;;;;;;4.60;4.10;;;5.00;99.90;;;;;;5033194;28;20643;-64
2021/10/15 02:29:22;;;;;;;3.80;3.50;;;5.00;99.90;;;;;;5033050;28;20206;-65
2021/10/15 02:31:48;;;;;;;5.00;4.50;;;5.00;99.90;;;;;;5033323;28;20455;-65
2021/10/15 02:34:15;;;;;;;5.70;3.80;;;5.00;99.90;;;;;;5033351;28;20409;-65
2021/10/15 02:36:41;;;;;;;5.40;3.97;;;4.90;99.90;;;;;;5032919;28;20265;-64
2021/10/15 02:39:06;;;;;;;6.60;3.63;;;4.90;99.90;;;;;;5033570;28;20229;-65
2021/10/15 02:41:37;;;;;;;4.17;3.80;;;4.90;99.90;;;;;;5032795;28;20178;-65
2021/10/15 02:44:06;;;;;;;3.45;3.15;;;4.80;99.90;;;;;;5033176;28;20173;-64
2021/10/15 02:46:32;;;;;;;5.38;3.95;;;4.70;99.90;;;;;;5032872;28;20583;-64
2021/10/15 02:48:58;;;;;;;4.20;3.67;;;4.70;99.90;;;;;;5032905;28;20660;-63
2021/10/15 02:51:24;;;;;;;3.60;3.07;;;4.60;99.90;;;;;;5033570;28;20248;-64
2021/10/15 02:53:50;;;;;;;3.20;2.93;;;4.60;99.90;;;;;;5033213;28;20194;-64
2021/10/15 02:56:15;;;;;;;4.37;3.97;;;4.60;99.90;;;;;;5032724;28;20316;-63
2021/10/15 02:58:41;;;;;;;3.67;2.73;;;4.60;99.90;;;;;;5032871;28;20440;-64
2021/10/15 03:01:06;;;;;;;4.07;3.67;;;4.50;99.90;;;;;;5033226;28;20174;-64
2021/10/15 03:03:32;;;;;;;3.00;2.73;;;4.50;99.90;;;;;;5033120;28;20174;-64
2021/10/15 03:05:58;;;;;;;4.30;3.97;;;4.50;99.90;;;;;;5032754;28;20648;-64
2021/10/15 03:08:23;;;;;;;4.20;3.27;;;4.40;99.90;;;;;;5032800;28;20656;-65
2021/10/15 03:10:49;;;;;;;4.30;3.67;;;4.50;99.90;;;;;;5033070;28;20162;-65
2021/10/15 03:13:15;;;;;;;3.77;3.07;;;4.50;99.90;;;;;;5032840;28;20201;-65
2021/10/15 03:15:40;;;;;;;4.00;3.27;;;4.40;99.90;;;;;;5033138;28;20170;-65
2021/10/15 03:18:06;;;;;;;8.27;3.50;;;4.50;99.90;;;;;;5032382;28;20585;-65
2021/10/15 03:20:32;;;;;;;6.50;3.87;;;4.40;99.90;;;;;;5033181;28;20178;-64
2021/10/15 03:22:57;;;;;;;3.50;3.20;;;4.40;99.90;;;;;;5033052;28;20257;-65
2021/10/15 03:25:23;;;;;;;3.50;3.30;;;4.40;99.90;;;;;;5036581;28;20982;-65
2021/10/15 03:27:49;;;;;;;5.40;4.33;;;4.40;99.90;;;;;;5035997;28;20268;-65
2021/10/15 03:30:14;;;;;;;4.50;3.70;;;4.40;99.90;;;;;;5036550;28;20205;-65
2021/10/15 03:32:40;;;;;;;6.90;4.07;;;4.40;99.90;;;;;;5036609;28;20209;-65
2021/10/15 03:35:06;;;;;;;3.43;2.90;;;4.50;99.90;;;;;;5036486;28;20269;-65
2021/10/15 03:37:32;;;;;;;3.75;3.40;;;4.50;99.90;;;;;;5036195;28;20420;-65
2021/10/15 03:39:58;;;;;;;5.87;3.63;;;4.40;99.90;;;;;;5036515;28;20177;-64
2021/10/15 03:42:23;;;;;;;8.17;3.87;;;4.40;99.90;;;;;;5036035;28;20189;-65
2021/10/15 03:44:49;;;;;;;3.43;3.23;;;4.40;99.90;;;;;;5036346;28;20583;-64
2021/10/15 03:47:15;;;;;;;7.13;5.13;;;4.40;99.90;;;;;;5036160;28;20268;-64
2021/10/15 03:49:40;;;;;;;4.83;3.40;;;4.40;99.90;;;;;;5036256;28;20243;-65
2021/10/15 03:52:06;;;;;;;3.43;3.13;;;4.40;99.90;;;;;;5036312;28;20178;-64
2021/10/15 03:54:32;;;;;;;3.30;3.10;;;4.40;99.90;;;;;;5035908;28;20174;-65
2021/10/15 03:56:57;;;;;;;17.97;4.73;;;4.30;99.90;;;;;;5035642;28;20174;-65
2021/10/15 03:59:23;;;;;;;3.10;2.90;;;4.30;99.90;;;;;;5036613;28;20221;-65
2021/10/15 04:01:49;;;;;;;3.00;2.70;;;4.30;99.90;;;;;;5036133;28;20170;-64
2021/10/15 04:04:14;;;;;;;5.07;3.47;;;4.30;99.90;;;;;;5036201;28;20632;-64
2021/10/15 04:06:40;;;;;;;4.53;3.70;;;4.30;99.90;;;;;;5035549;28;20181;-65
2021/10/15 04:09:06;;;;;;;6.90;4.90;;;4.30;99.90;;;;;;5035646;28;20460;-64
2021/10/15 04:11:32;;;;;;;5.40;3.93;;;4.30;99.90;;;;;;5036089;28;20533;-64
2021/10/15 04:13:59;;;;;;;4.20;3.22;;;4.40;99.90;;;;;;5035520;28;20525;-64
2021/10/15 04:16:25;;;;;;;4.82;4.45;;;4.40;99.90;;;;;;5035674;28;20166;-64
2021/10/15 04:18:50;;;;;;;5.80;4.57;;;4.40;99.90;;;;;;5035400;28;20201;-64
2021/10/15 04:21:16;;;;;;;3.87;3.57;;;4.40;99.90;;;;;;5035820;28;20405;-66
2021/10/15 04:23:41;;;;;;;3.37;3.07;;;4.40;99.90;;;;;;5035566;28;20174;-65
2021/10/15 04:26:07;;;;;;;5.47;3.73;;;4.40;99.90;;;;;;5035623;28;20633;-65
2021/10/15 04:28:34;;;;;;;7.75;3.50;;;4.50;99.90;;;;;;5035008;28;20293;-65
2021/10/15 04:31:00;;;;;;;6.10;5.38;;;4.50;99.90;;;;;;5035395;28;20170;-65
2021/10/15 04:33:25;;;;;;;3.30;3.00;;;4.50;99.90;;;;;;5035504;28;20189;-64
2021/10/15 04:35:51;;;;;;;2.50;2.30;;;4.50;99.90;;;;;;5033955;28;20202;-65
2021/10/15 04:38:17;;;;;;;6.43;4.33;;;4.50;99.90;;;;;;5034867;28;20190;-65
2021/10/15 04:40:43;;;;;;;5.30;4.07;;;4.50;99.90;;;;;;5035471;28;20478;-65
2021/10/15 04:43:09;;;;;;;3.00;2.73;;;4.40;99.90;;;;;;5034258;28;20173;-64
2021/10/15 04:45:35;;;;;;;4.67;3.77;;;4.40;99.90;;;;;;5035216;28;20424;-64
2021/10/15 04:48:02;;;;;;;3.07;2.77;;;4.40;99.90;;;;;;5016823;28;20214;-64
2021/10/15 04:50:27;;;;;;;4.20;3.65;;;4.40;99.90;;;;;;5035059;28;20196;-64
2021/10/15 04:52:53;;;;;;;6.27;4.13;;;4.30;99.90;;;;;;5035246;28;20170;-64
2021/10/15 04:55:19;;;;;;;3.93;3.53;;;4.30;99.90;;;;;;5034805;28;20708;-64
2021/10/15 04:57:44;;;;;;;7.57;3.90;;;4.20;99.90;;;;;;5034299;28;20198;-64
2021/10/15 05:00:11;;;;;;;3.53;3.20;;;4.30;99.90;;;;;;5034944;28;20212;-64
2021/10/15 05:02:40;;;;;;;5.07;4.68;;;4.20;99.90;;;;;;5035069;28;20224;-65
2021/10/15 05:05:08;;;;;;;3.25;3.03;;;4.30;99.90;;;;;;5034930;28;20587;-66
2021/10/15 05:07:37;;;;;;;5.00;4.53;;;4.20;99.90;;;;;;5033163;28;20186;-65
2021/10/15 05:10:04;;;;;;;4.65;3.45;;;4.20;99.90;;;;;;5033400;28;20215;-64
2021/10/15 05:12:30;;;;;;;6.53;3.95;;;4.20;99.90;;;;;;5034772;28;20200;-64
2021/10/15 05:14:56;;;;;;;5.10;3.60;;;4.20;99.90;;;;;;5034658;28;20162;-65
2021/10/15 05:17:21;;;;;;;5.07;4.40;;;4.20;99.90;;;;;;5034365;28;20424;-65
2021/10/15 05:19:47;;;;;;;4.10;3.80;;;4.10;99.90;;;;;;5034715;28;20189;-65
2021/10/15 05:22:13;;;;;;;4.30;3.90;;;4.10;99.90;;;;;;5034244;28;20655;-67
2021/10/15 05:24:39;;;;;;;4.80;3.80;;;4.20;99.90;;;;;;5034091;28;20185;-66
2021/10/15 05:27:05;;;;;;;3.97;3.57;;;4.20;99.90;;;;;;5033895;28;20412;-67
2021/10/15 05:29:31;;;;;;;3.00;2.80;;;4.20;99.90;;;;;;5034328;28;20517;-67
2021/10/15 05:31:56;;;;;;;3.90;3.13;;;4.10;99.90;;;;;;5032967;28;20252;-64
2021/10/15 05:34:22;;;;;;;2.80;2.50;;;4.10;99.90;;;;;;5034664;28;20166;-66
2021/10/15 05:36:48;;;;;;;3.73;3.37;;;4.10;99.90;;;;;;5033806;28;20510;-65
2021/10/15 05:39:14;;;;;;;5.97;3.60;;;4.10;99.90;;;;;;5033829;28;20472;-65
2021/10/15 05:41:39;;;;;;;3.73;3.43;;;4.10;99.90;;;;;;5033644;28;20178;-66
2021/10/15 05:44:05;;;;;;;3.83;3.53;;;4.20;99.90;;;;;;5034117;28;20526;-64
2021/10/15 05:46:31;;;;;;;4.30;3.63;;;4.20;99.90;;;;;;5033102;28;20174;-64
2021/10/15 05:48:56;;;;;;;5.23;4.73;;;4.20;99.90;;;;;;5033742;28;20198;-64
2021/10/15 05:51:24;;;;;;;8.97;4.87;;;4.20;99.90;;;;;;5034189;28;20174;-64
2021/10/15 05:53:52;;;;;;;4.60;4.07;;;4.20;99.90;;;;;;5033703;28;20174;-65
2021/10/15 05:56:35;;;;;;;3.70;3.35;;;4.20;99.90;;;;;;5033545;28;20556;-66
2021/10/15 05:59:04;;;;;;;3.40;3.10;;;4.30;99.90;;;;;;5033517;28;20244;-66
2021/10/15 06:01:30;;;;;;;5.85;4.13;;;4.30;99.90;;;;;;5033825;28;20264;-65
2021/10/15 06:14:20;;;;;;;7.38;4.65;;;4.60;99.90;;;;;;5033632;28;20265;-66
2021/10/15 06:16:49;;;;;;;6.63;4.88;;;4.70;99.90;;;;;;5033084;28;20181;-65
2021/10/15 06:19:18;;;;;;;5.28;3.65;;;4.80;99.90;;;;;;5031752;28;20205;-65
2021/10/15 06:21:44;;;;;;;4.65;4.25;;;4.90;99.90;;;;;;5032503;28;20257;-66
2021/10/15 06:24:10;;;;;;;3.83;3.40;;;4.90;99.90;;;;;;5032028;28;20263;-64
2021/10/15 06:26:36;;;;;;;4.67;4.00;;;5.10;99.90;;;;;;5033247;28;20936;-67
2021/10/15 06:29:02;;;;;;;5.10;4.60;;;5.20;99.90;;;;;;5032895;28;20466;-66
2021/10/15 06:31:29;;;;;;;6.43;4.25;;;5.20;99.90;;;;;;5033458;28;20179;-63
2021/10/15 06:33:55;;;;;;;4.20;3.72;;;5.30;99.90;;;;;;5033222;28;20174;-63
2021/10/15 06:36:21;;;;;;;5.00;4.03;;;5.30;99.90;;;;;;5033401;28;20171;-66
2021/10/15 06:38:47;;;;;;;4.27;3.87;;;5.30;99.90;;;;;;5032469;28;20206;-64
2021/10/15 06:41:12;;;;;;;5.60;4.20;;;5.30;99.90;;;;;;5031867;28;20174;-63
2021/10/15 06:43:38;;;;;;;5.03;3.80;;;5.40;99.90;;;;;;5033304;28;20182;-65
2021/10/15 06:46:04;;;;;;;4.30;3.70;;;5.50;99.90;;;;;;5032999;28;20640;-64
2021/10/15 06:48:30;;;;;;;5.87;5.27;;;5.50;99.90;;;;;;5032506;28;20198;-64
2021/10/15 06:50:58;;;;;;;6.93;3.63;;;5.50;99.90;;;;;;5032941;28;20402;-69
2021/10/15 06:53:23;;;;;;;5.80;5.22;;;5.50;99.90;;;;;;5032786;28;20198;-65
2021/10/15 06:55:49;;;;;;;6.57;4.90;;;5.50;99.90;;;;;;5032966;28;20209;-63
2021/10/15 06:58:15;;;;;;;5.50;4.17;;;5.50;99.90;;;;;;5034417;28;20197;-63
2021/10/15 07:00:41;;;;;;;3.90;3.50;;;5.50;99.90;;;;;;5037083;28;20172;-64
2021/10/15 07:03:17;;;;;;;4.67;3.53;;;5.50;99.90;;;;;;5035603;28;20197;-64
2021/10/15 07:05:44;;;;;;;4.18;3.78;;;5.50;99.90;;;;;;5037116;28;20169;-66
2021/10/15 07:08:10;;;;;;;6.05;4.72;;;5.60;99.90;;;;;;5035941;28;20218;-64
2021/10/15 07:10:36;;;;;;;8.07;6.90;;;5.90;99.90;;;;;;5036618;28;20191;-65
2021/10/15 07:13:02;;;;;;;18.10;7.10;;;6.40;99.90;;;;;;5036758;28;20199;-65
2021/10/15 07:15:28;;;;;;;5.60;4.85;;;6.80;99.90;;;;;;5036746;28;20175;-64
2021/10/15 07:17:54;;;;;;;5.23;4.83;;;7.00;99.90;;;;;;5036474;28;20255;-65
2021/10/15 07:20:19;;;;;;;6.93;4.90;;;7.10;99.90;;;;;;5036750;28;20802;-66
2021/10/15 07:22:45;;;;;;;6.90;4.90;;;7.20;99.90;;;;;;5036334;28;20656;-67
2021/10/15 07:25:11;;;;;;;7.13;5.13;;;7.30;99.90;;;;;;5035861;28;20174;-65
2021/10/15 07:27:37;;;;;;;5.20;4.70;;;7.40;99.90;;;;;;5035997;28;20723;-65
2021/10/15 07:30:05;;;;;;;3.65;3.35;;;7.60;99.90;;;;;;5036332;28;20236;-65
2021/10/15 07:32:31;;;;;;;3.00;2.72;;;7.60;99.90;;;;;;5036296;28;20182;-65
2021/10/15 07:34:57;;;;;;;4.40;3.95;;;7.60;99.90;;;;;;5036306;28;20174;-64
2021/10/15 07:37:25;;;;;;;3.83;3.47;;;7.80;99.90;;;;;;5035887;28;20217;-64
2021/10/15 07:39:51;;;;;;;5.78;3.50;;;8.30;99.90;;;;;;5035544;28;20428;-68
2021/10/15 07:42:16;;;;;;;3.05;2.80;;;9.20;99.90;;;;;;5036473;28;20177;-69
2021/10/15 07:44:42;;;;;;;4.90;4.40;;;10.30;99.90;;;;;;5036413;28;20524;-69
2021/10/15 07:47:08;;;;;;;4.73;4.30;;;11.40;99.90;;;;;;5034459;28;20268;-70
2021/10/15 07:49:33;;;;;;;3.50;2.47;;;12.50;99.90;;;;;;5036258;28;20285;-64
2021/10/15 07:51:59;;;;;;;3.63;3.33;;;13.50;99.90;;;;;;5035119;28;20174;-64
2021/10/15 07:54:25;;;;;;;3.63;3.33;;;14.60;99.90;;;;;;5036097;28;20174;-66
2021/10/15 07:56:51;;;;;;;4.03;3.10;;;15.60;99.90;;;;;;5035891;28;20495;-66
2021/10/15 07:59:17;;;;;;;5.17;2.97;;;16.40;99.90;;;;;;5036252;28;20197;-67
2021/10/15 08:01:43;;;;;;;3.50;3.20;;;17.20;99.90;;;;;;5035795;28;20675;-66
2021/10/15 08:04:09;;;;;;;3.07;2.77;;;18.00;99.40;;;;;;5035918;28;20408;-66
2021/10/15 08:06:35;;;;;;;5.07;2.43;;;18.30;96.00;;;;;;5035481;28;20387;-65
2021/10/15 08:09:01;;;;;;;3.10;2.90;;;18.50;96.20;;;;;;5034892;28;20439;-65
2021/10/15 08:11:26;;;;;;;3.47;2.87;;;18.80;94.40;;;;;;5035946;28;20170;-66
2021/10/15 08:13:52;;;;;;;3.17;2.83;;;18.90;93.60;;;;;;5035978;28;20208;-67
2021/10/15 08:16:19;;;;;;;3.50;2.70;;;19.10;92.30;;;;;;5035744;28;20182;-65
2021/10/15 08:18:46;;;;;;;2.93;2.23;;;19.40;92.40;;;;;;5029072;28;20560;-62
2021/10/15 08:21:11;;;;;;;3.10;2.80;;;19.70;93.00;;;;;;5035437;28;20387;-65
2021/10/15 08:23:37;;;;;;;3.03;2.83;;;20.00;91.20;;;;;;5035520;28;20403;-67
2021/10/15 08:26:02;;;;;;;3.30;3.03;;;19.80;90.40;;;;;;5035555;28;20182;-65
2021/10/15 08:28:28;;;;;;;3.53;3.33;;;19.50;90.30;;;;;;5035213;28;20266;-66
2021/10/15 08:30:54;;;;;;;3.00;2.80;;;19.30;90.60;;;;;;5034637;28;20232;-66
2021/10/15 08:33:20;;;;;;;3.43;3.17;;;19.30;90.90;;;;;;5035294;28;20246;-66
2021/10/15 08:35:46;;;;;;;3.83;3.50;;;19.20;91.00;;;;;;5033298;28;20170;-64
2021/10/15 08:38:13;;;;;;;3.07;2.87;;;19.30;92.50;;;;;;5034662;28;20230;-64
2021/10/15 08:40:39;;;;;;;3.53;3.33;;;20.00;91.70;;;;;;5033733;28;20829;-67
2021/10/15 08:43:04;;;;;;;3.47;3.17;;;20.50;88.40;;;;;;5034906;28;20386;-65
2021/10/15 08:45:32;;;;;;;3.37;3.17;;;20.80;88.80;;;;;;5020599;28;20193;-64
2021/10/15 08:47:59;;;;;;;3.57;3.13;;;20.80;84.20;;;;;;5031762;28;20205;-64
2021/10/15 08:50:25;;;;;;;3.10;2.90;;;20.70;85.70;;;;;;5034632;28;20456;-63
2021/10/15 08:52:52;;;;;;;3.57;3.27;;;20.80;86.10;;;;;;5035164;28;20390;-64
2021/10/15 08:55:18;;;;;;;3.87;2.90;;;20.80;85.10;;;;;;5034662;28;20465;-64
2021/10/15 08:57:56;;;;;;;3.27;3.07;;;20.90;84.40;;;;;;5033816;28;20414;-64
2021/10/15 09:00:26;;;;;;;3.27;2.97;;;20.60;84.30;;;;;;5034701;28;20461;-63
2021/10/15 09:03:21;;;;;;;3.57;3.27;;;20.60;86.40;;;;;;5034119;28;20428;-64
2021/10/15 09:06:00;;;;;;;3.53;3.23;;;20.80;85.40;;;;;;5034774;28;20486;-63
2021/10/15 09:08:48;;;;;;;3.80;3.40;;;21.10;86.40;;;;;;5034291;28;20749;-63
2021/10/15 09:11:33;;;;;;;3.53;3.23;;;21.80;86.10;;;;;;5034037;28;20395;-64
2021/10/15 09:14:16;;;;;;;3.60;3.30;;;22.50;82.90;;;;;;5035037;28;20416;-64
2021/10/15 09:17:05;;;;;;;4.50;3.60;;;23.10;83.00;;;;;;5034208;28;20409;-64
2021/10/15 09:19:36;;;;;;;4.10;3.50;;;23.70;80.40;;;;;;5034426;28;20379;-64
2021/10/15 09:22:08;;;;;;;3.63;3.37;;;24.10;78.00;;;;;;5032386;28;20483;-64
2021/10/15 09:24:46;;;;;;;3.40;3.20;;;24.50;75.80;;;;;;5033489;28;20395;-64
2021/10/15 09:27:15;;;;;;;3.37;3.07;;;24.70;77.00;;;;;;5033984;28;20806;-64
2021/10/15 09:29:48;;;;;;;3.20;3.00;;;24.80;74.60;;;;;;5034129;28;20456;-64
2021/10/15 09:32:15;;;;;;;3.97;3.67;;;25.00;75.60;;;;;;5034079;28;20488;-64
2021/10/15 09:34:41;;;;;;;3.60;3.30;;;25.50;73.60;;;;;;5033747;28;20421;-64
2021/10/15 09:37:22;;;;;;;3.60;3.30;;;26.00;73.30;;;;;;5031836;28;20405;-64
2021/10/15 09:39:48;;;;;;;4.07;3.67;;;26.30;70.10;;;;;;5032209;28;20387;-64
2021/10/15 09:42:20;;;;;;;3.50;3.20;;;26.50;68.70;;;;;;5031994;28;20448;-64
2021/10/15 09:44:46;;;;;;;3.10;2.87;;;26.40;66.80;;;;;;5033425;28;20409;-64
2021/10/15 09:47:26;;;;;;;4.13;3.37;;;26.00;67.40;;;;;;5032892;28;20487;-64
2021/10/15 09:49:56;;;;;;;3.30;3.00;;;25.60;69.20;;;;;;5033089;28;20220;-65
2021/10/15 09:52:34;;;;;;;2.70;2.50;;;25.30;70.30;;;;;;5033936;28;20895;-64
2021/10/15 09:55:07;;;;;;;3.67;2.60;;;25.00;69.00;;;;;;5033777;28;20428;-64
2021/10/15 09:57:38;;;;;;;2.80;2.60;;;24.80;68.80;;;;;;5032951;28;20524;-65
2021/10/15 10:00:07;;;;;;;2.70;2.50;;;24.60;68.30;;;;;;5033749;28;20408;-64
2021/10/15 10:02:34;;;;;;;2.93;2.73;;;24.30;68.60;;;;;;5033919;28;20388;-64
2021/10/15 10:05:01;;;;;;;4.37;3.97;;;24.20;71.90;;;;;;5033694;28;20794;-64
2021/10/15 10:07:27;;;;;;;3.37;2.83;;;24.20;72.40;;;;;;5033269;28;21001;-64
2021/10/15 10:09:53;;;;;;;2.40;2.20;;;24.20;73.00;;;;;;5033453;28;20453;-64
2021/10/15 10:12:19;;;;;;;2.60;2.47;;;24.40;72.20;;;;;;5032964;28;20950;-64
2021/10/15 10:14:45;;;;;;;3.40;3.10;;;24.40;71.30;;;;;;5033444;28;20178;-65
2021/10/15 10:17:14;;;;;;;2.90;2.70;;;24.30;70.00;;;;;;5033343;28;20741;-64
2021/10/15 10:19:41;;;;;;;2.97;2.67;;;24.30;70.60;;;;;;5033657;28;20724;-64
2021/10/15 10:22:07;;;;;;;3.30;3.00;;;24.10;70.80;;;;;;5033497;28;20375;-64
2021/10/15 10:24:35;;;;;;;3.90;3.50;;;24.00;71.60;;;;;;5033602;28;20803;-64
2021/10/15 10:27:01;;;;;;;3.47;3.17;;;24.00;71.90;;;;;;5032633;28;20232;-64
2021/10/15 10:29:28;;;;;;;2.87;2.53;;;23.80;72.10;;;;;;5033423;28;20430;-64
2021/10/15 10:32:17;;;;;;;2.80;2.60;;;23.80;71.90;;;;;;5033078;28;20505;-64
2021/10/15 10:34:42;;;;;;;2.37;2.07;;;23.90;72.40;;;;;;5033326;28;20459;-64
2021/10/15 10:37:13;;;;;;;1.93;1.83;;;23.80;72.50;;;;;;5033169;28;20400;-64
2021/10/15 10:39:39;;;;;;;2.63;2.43;;;23.50;72.60;;;;;;5033400;28;20599;-64
2021/10/15 10:42:12;;;;;;;2.50;2.30;;;23.10;71.40;;;;;;5032544;28;20398;-64
2021/10/15 10:44:47;;;;;;;2.50;2.30;;;22.50;73.30;;;;;;5033044;28;20395;-64
2021/10/15 10:47:21;;;;;;;2.23;2.03;;;22.50;74.80;;;;;;5032709;28;20715;-64
2021/10/15 10:50:02;;;;;;;2.40;2.10;;;22.30;75.10;;;;;;5032796;28;20464;-64
2021/10/15 10:52:30;;;;;;;2.73;2.53;;;22.30;75.30;;;;;;5033130;28;20495;-64
2021/10/15 10:54:55;;;;;;;2.30;2.10;;;22.20;75.80;;;;;;5032331;28;20422;-64
2021/10/15 10:57:31;;;;;;;2.73;2.53;;;21.90;76.00;;;;;;5031842;28;20528;-63
2021/10/15 11:00:20;;;;;;;2.10;1.97;;;21.70;76.70;;;;;;5032634;28;20543;-64
2021/10/15 11:02:55;;;;;;;2.50;2.30;;;21.30;77.80;;;;;;5025927;28;20482;-63
2021/10/15 11:05:34;;;;;;;2.27;2.13;;;21.10;78.90;;;;;;5012982;28;20396;-70
2021/10/15 11:08:25;;;;;;;3.30;3.00;;;20.60;79.40;;;;;;5013669;28;20416;-69
2021/10/15 11:11:19;;;;;;;2.40;2.20;;;20.00;79.60;;;;;;5022122;28;20388;-68
2021/10/15 11:13:44;;;;;;;2.40;2.20;;;19.40;82.80;;;;;;5032366;28;20378;-67
2021/10/15 11:16:27;;;;;;;2.80;2.13;;;19.00;83.30;;;;;;5031178;28;20393;-68
2021/10/15 11:18:54;;;;;;;2.20;2.00;;;18.70;85.80;;;;;;5030562;28;20217;-70
2021/10/15 11:21:20;;;;;;;2.57;2.37;;;18.50;86.40;;;;;;5032686;28;20379;-68
2021/10/15 11:23:47;;;;;;;1.93;1.83;;;18.30;87.30;;;;;;5032055;28;20745;-73
2021/10/15 11:26:13;;;;;;;2.70;2.50;;;18.20;87.50;;;;;;5031859;28;20394;-68
2021/10/15 11:28:39;;;;;;;2.20;1.90;;;18.00;89.10;;;;;;5031138;28;21032;-70
2021/10/15 11:31:11;;;;;;;2.00;1.60;;;17.80;88.80;;;;;;5030908;28;20427;-69
2021/10/15 11:33:39;;;;;;;2.70;2.10;;;17.60;90.20;;;;;;5032321;28;20187;-69
2021/10/15 11:36:06;;;;;;;1.80;1.70;;;17.30;90.00;;;;;;5032517;28;20415;-69
2021/10/15 11:38:32;;;;;;;2.50;2.10;;;17.10;90.40;;;;;;5032436;28;20780;-68
2021/10/15 11:41:06;;;;;;;1.40;1.30;;;16.90;91.10;;;;;;5023015;28;20417;-70
2021/10/15 11:43:34;;;;;;;2.43;2.23;;;16.80;91.50;;;;;;5030636;28;20426;-66
2021/10/15 11:46:08;;;;;;;2.37;1.87;;;16.70;91.30;;;;;;5034837;28;20421;-70
2021/10/15 11:48:42;;;;;;;2.03;1.80;;;16.60;91.20;;;;;;5035724;28;20485;-66
2021/10/15 11:51:10;;;;;;;2.17;1.97;;;16.50;91.60;;;;;;5036036;28;20418;-64
2021/10/15 11:53:45;;;;;;;2.33;2.13;;;16.50;92.00;;;;;;5036062;28;20387;-69
2021/10/15 11:56:26;;;;;;;3.50;3.20;;;16.40;91.80;;;;;;5035974;28;20411;-66
2021/10/15 11:58:53;;;;;;;2.30;2.10;;;16.40;92.00;;;;;;5034906;28;20955;-67
2021/10/15 12:01:24;;;;;;;3.87;2.10;;;16.40;92.50;;;;;;5020073;28;20747;-65
2021/10/15 12:03:51;;;;;;;2.17;1.90;;;16.20;92.50;;;;;;5016217;28;20410;-67
2021/10/15 12:06:25;;;;;;;2.40;2.20;;;16.10;92.40;;;;;;5029734;28;20423;-66
2021/10/15 12:08:57;;;;;;;5.03;2.87;;;16.10;92.70;;;;;;5035406;28;20432;-68
2021/10/15 12:11:41;;;;;;;4.93;2.90;;;16.10;93.10;;;;;;5036120;28;20472;-65
2021/10/15 12:14:14;;;;;;;4.97;2.20;;;16.10;92.50;;;;;;5036218;28;20380;-65
2021/10/15 12:16:42;;;;;;;1.73;1.63;;;16.10;92.80;;;;;;5035749;28;20427;-66
2021/10/15 12:19:22;;;;;;;5.83;2.43;;;16.20;93.40;;;;;;5035353;28;20494;-66
2021/10/15 12:21:49;;;;;;;2.57;2.37;;;16.40;92.90;;;;;;5034932;28;20517;-65
2021/10/15 12:24:27;;;;;;;2.10;1.90;;;16.60;92.50;;;;;;5034795;28;20447;-66
2021/10/15 12:27:09;;;;;;;2.97;2.37;;;16.80;92.70;;;;;;5034814;28;20872;-66
2021/10/15 12:29:39;;;;;;;1.80;1.70;;;16.90;92.30;;;;;;5035382;28;20470;-68
2021/10/15 12:32:14;;;;;;;4.03;2.73;;;17.00;92.00;;;;;;5035185;28;20875;-67
2021/10/15 12:34:59;;;;;;;2.37;2.17;;;16.80;91.60;;;;;;5034701;28;20872;-65
2021/10/15 12:37:50;;;;;;;1.90;1.70;;;16.60;91.60;;;;;;5033578;28;20428;-66
2021/10/15 12:40:33;;;;;;;2.20;2.10;;;16.60;91.80;;;;;;5035239;28;20480;-66
2021/10/15 12:43:02;;;;;;;2.30;2.10;;;16.50;92.40;;;;;;5034012;28;20437;-66
2021/10/15 12:45:44;;;;;;;1.80;1.63;;;16.50;92.70;;;;;;5034192;28;20474;-66
2021/10/15 12:48:16;;;;;;;3.50;2.60;;;16.60;93.00;;;;;;5034321;28;20435;-66
2021/10/15 12:50:56;;;;;;;3.37;2.17;;;16.70;93.10;;;;;;5034652;28;20432;-65
2021/10/15 12:53:23;;;;;;;3.93;2.30;;;16.90;92.90;;;;;;5034853;28;20398;-66
2021/10/15 12:55:58;;;;;;;2.17;1.40;;;16.90;93.10;;;;;;5032943;28;20427;-66
2021/10/15 12:58:29;;;;;;;3.00;2.30;;;17.00;93.10;;;;;;5032706;28;20427;-66
2021/10/15 13:01:00;;;;;;;2.90;2.17;;;16.90;92.10;;;;;;5033809;28;20776;-67
2021/10/15 13:03:26;;;;;;;2.07;1.87;;;16.80;92.50;;;;;;5034097;28;20415;-66
2021/10/15 13:05:55;;;;;;;2.30;2.10;;;16.80;92.80;;;;;;5034249;28;20420;-66
2021/10/15 13:08:21;;;;;;;2.77;2.57;;;16.80;92.00;;;;;;5034115;28;20411;-67